createdAt,value
2017-01-14T00:00:16.132Z,1012.97
2017-01-14T00:00:56.734Z,1012.95
2017-01-14T00:01:37.315Z,1012.99
2017-01-14T00:02:17.899Z,1012.98
2017-01-14T00:02:58.485Z,1012.98
2017-01-14T00:03:39.068Z,1012.93
2017-01-14T00:04:19.655Z,1012.9
2017-01-14T00:05:00.245Z,1012.88
2017-01-14T00:05:40.845Z,1012.94
2017-01-14T00:06:21.448Z,1012.9
2017-01-14T00:07:02.052Z,1012.95
2017-01-14T00:07:42.638Z,1012.95
2017-01-14T00:08:23.251Z,1012.99
2017-01-14T00:09:03.845Z,1013
2017-01-14T00:09:44.432Z,1013
2017-01-14T00:10:25.010Z,1013.03
2017-01-14T00:11:05.601Z,1013.02
2017-01-14T00:11:46.192Z,1013.03
2017-01-14T00:12:26.791Z,1013.07
2017-01-14T00:13:07.372Z,1013.05
2017-01-14T00:13:47.953Z,1013.08
2017-01-14T00:14:28.562Z,1013.07
2017-01-14T00:15:09.148Z,1013.11
2017-01-14T00:15:49.751Z,1013.13
2017-01-14T00:16:30.351Z,1013.12
2017-01-14T00:17:10.943Z,1013.12
2017-01-14T00:17:51.542Z,1013.15
2017-01-14T00:18:32.138Z,1013.16
2017-01-14T00:19:12.717Z,1013.15
2017-01-14T00:19:53.290Z,1013.17
2017-01-14T00:20:33.876Z,1013.16
2017-01-14T00:21:14.477Z,1013.15
2017-01-14T00:21:55.066Z,1013.21
2017-01-14T00:22:35.649Z,1013.24
2017-01-14T00:23:16.230Z,1013.22
2017-01-14T00:23:56.849Z,1013.2
2017-01-14T00:24:37.434Z,1013.24
2017-01-14T00:25:18.039Z,1013.22
2017-01-14T00:25:58.636Z,1013.28
2017-01-14T00:26:39.252Z,1013.29
2017-01-14T00:27:19.839Z,1013.33
2017-01-14T00:28:00.434Z,1013.31
2017-01-14T00:28:41.031Z,1013.3
2017-01-14T00:29:21.612Z,1013.29
2017-01-14T00:30:02.214Z,1013.29
2017-01-14T00:30:42.813Z,1013.26
2017-01-14T00:31:23.392Z,1013.3
2017-01-14T00:32:03.972Z,1013.3
2017-01-14T00:32:44.562Z,1013.23
2017-01-14T00:33:25.144Z,1013.24
2017-01-14T00:34:05.732Z,1013.21
2017-01-14T00:34:46.314Z,1013.21
2017-01-14T00:35:26.893Z,1013.19
2017-01-14T00:36:07.476Z,1013.19
2017-01-14T00:36:48.061Z,1013.17
2017-01-14T00:37:28.647Z,1013.17
2017-01-14T00:38:09.236Z,1013.16
2017-01-14T00:38:49.823Z,1013.16
2017-01-14T00:39:30.415Z,1013.14
2017-01-14T00:40:10.996Z,1013.12
2017-01-14T00:40:51.580Z,1013.11
2017-01-14T00:41:32.167Z,1013.03
2017-01-14T00:42:12.746Z,1013.05
2017-01-14T00:42:53.334Z,1013.06
2017-01-14T00:43:33.909Z,1013.01
2017-01-14T00:44:14.507Z,1013.02
2017-01-14T00:44:55.090Z,1013.03
2017-01-14T00:45:35.676Z,1013.04
2017-01-14T00:46:16.262Z,1013.02
2017-01-14T00:46:56.843Z,1013.02
2017-01-14T00:47:37.419Z,1013.01
2017-01-14T00:48:18.009Z,1013.01
2017-01-14T00:48:58.593Z,1013.05
2017-01-14T00:49:39.190Z,1013.01
2017-01-14T00:50:19.769Z,1013.04
2017-01-14T00:51:00.354Z,1012.98
2017-01-14T00:51:40.933Z,1013.04
2017-01-14T00:52:21.521Z,1013.03
2017-01-14T00:53:02.107Z,1013.05
2017-01-14T00:53:42.702Z,1013.06
2017-01-14T00:54:23.302Z,1013.06
2017-01-14T00:55:03.914Z,1013.03
2017-01-14T00:55:44.490Z,1013.02
2017-01-14T00:56:25.088Z,1012.96
2017-01-14T00:57:05.686Z,1012.94
2017-01-14T00:57:46.277Z,1012.91
2017-01-14T00:58:26.871Z,1012.89
2017-01-14T00:59:07.467Z,1012.89
2017-01-14T00:59:48.056Z,1012.84
2017-01-14T01:00:28.676Z,1012.85
2017-01-14T01:01:09.275Z,1012.82
2017-01-14T01:01:49.865Z,1012.75
2017-01-14T01:02:30.456Z,1012.78
2017-01-14T01:03:11.048Z,1012.7
2017-01-14T01:03:51.637Z,1012.68
2017-01-14T01:04:32.232Z,1012.66
2017-01-14T01:05:12.829Z,1012.65
2017-01-14T01:05:53.407Z,1012.66
2017-01-14T01:06:33.989Z,1012.63
2017-01-14T01:07:14.584Z,1012.6
2017-01-14T01:07:55.161Z,1012.65
2017-01-14T01:08:35.743Z,1012.59
2017-01-14T01:09:16.327Z,1012.68
2017-01-14T01:09:56.917Z,1012.74
2017-01-14T01:10:37.510Z,1012.7
2017-01-14T01:11:18.102Z,1012.8
2017-01-14T01:11:58.693Z,1012.83
2017-01-14T01:12:39.304Z,1012.81
2017-01-14T01:13:19.904Z,1012.83
2017-01-14T01:14:00.496Z,1012.8
2017-01-14T01:14:41.068Z,1012.84
2017-01-14T01:15:21.647Z,1012.85
2017-01-14T01:16:02.237Z,1012.8
2017-01-14T01:16:42.817Z,1012.85
2017-01-14T01:17:23.411Z,1012.81
2017-01-14T01:18:04.007Z,1012.84
2017-01-14T01:18:44.588Z,1012.84
2017-01-14T01:19:25.170Z,1012.84
2017-01-14T01:20:05.775Z,1012.85
2017-01-14T01:20:46.349Z,1012.85
2017-01-14T01:21:26.922Z,1012.85
2017-01-14T01:22:07.512Z,1012.86
2017-01-14T01:22:48.114Z,1012.85
2017-01-14T01:23:28.716Z,1012.91
2017-01-14T01:24:09.294Z,1012.89
2017-01-14T01:24:49.907Z,1012.89
2017-01-14T01:25:30.483Z,1012.86
2017-01-14T01:26:11.086Z,1012.89
2017-01-14T01:26:51.665Z,1012.86
2017-01-14T01:27:32.244Z,1012.89
2017-01-14T01:28:12.834Z,1012.84
2017-01-14T01:28:53.414Z,1012.89
2017-01-14T01:29:33.996Z,1012.9
2017-01-14T01:30:14.587Z,1012.91
2017-01-14T01:30:55.165Z,1012.9
2017-01-14T01:31:35.755Z,1012.86
2017-01-14T01:32:16.340Z,1012.9
2017-01-14T01:32:56.920Z,1012.9
2017-01-14T01:33:37.502Z,1012.9
2017-01-14T01:34:18.093Z,1012.91
2017-01-14T01:34:58.677Z,1012.96
2017-01-14T01:35:39.257Z,1012.92
2017-01-14T01:36:19.848Z,1012.9
2017-01-14T01:37:00.440Z,1012.89
2017-01-14T01:37:41.045Z,1012.95
2017-01-14T01:38:21.637Z,1012.91
2017-01-14T01:39:02.219Z,1012.85
2017-01-14T01:39:42.794Z,1012.92
2017-01-14T01:40:23.378Z,1012.88
2017-01-14T01:41:03.963Z,1012.9
2017-01-14T01:41:44.559Z,1012.82
2017-01-14T01:42:25.163Z,1012.85
2017-01-14T01:43:05.739Z,1012.86
2017-01-14T01:43:46.320Z,1012.84
2017-01-14T01:44:26.903Z,1012.83
2017-01-14T01:45:07.485Z,1012.85
2017-01-14T01:45:48.072Z,1012.84
2017-01-14T01:46:28.667Z,1012.85
2017-01-14T01:47:09.244Z,1012.79
2017-01-14T01:47:49.825Z,1012.79
2017-01-14T01:48:30.405Z,1012.84
2017-01-14T01:49:10.992Z,1012.84
2017-01-14T01:49:51.578Z,1012.81
2017-01-14T01:50:32.176Z,1012.84
2017-01-14T01:51:12.755Z,1012.86
2017-01-14T01:51:53.338Z,1012.89
2017-01-14T01:52:33.913Z,1012.88
2017-01-14T01:53:14.499Z,1012.88
2017-01-14T01:53:55.094Z,1012.89
2017-01-14T01:54:35.685Z,1012.88
2017-01-14T01:55:16.274Z,1012.86
2017-01-14T01:55:56.852Z,1012.88
2017-01-14T01:56:37.446Z,1012.91
2017-01-14T01:57:18.032Z,1012.92
2017-01-14T01:57:58.617Z,1012.93
2017-01-14T01:58:39.202Z,1012.9
2017-01-14T01:59:19.796Z,1012.91
2017-01-14T02:00:00.385Z,1012.92
2017-01-14T02:00:40.960Z,1012.9
2017-01-14T02:01:21.539Z,1012.97
2017-01-14T02:02:02.131Z,1012.96
2017-01-14T02:02:42.712Z,1012.98
2017-01-14T02:03:23.303Z,1012.94
2017-01-14T02:04:03.891Z,1012.94
2017-01-14T02:04:44.491Z,1012.97
2017-01-14T02:05:25.072Z,1012.98
2017-01-14T02:06:05.656Z,1013
2017-01-14T02:06:46.237Z,1013.04
2017-01-14T02:07:26.831Z,1013.05
2017-01-14T02:08:07.414Z,1013.11
2017-01-14T02:08:48.023Z,1013.1
2017-01-14T02:09:28.603Z,1013.1
2017-01-14T02:10:09.178Z,1013.08
2017-01-14T02:10:49.767Z,1013.1
2017-01-14T02:11:30.391Z,1013.1
2017-01-14T02:12:10.976Z,1013.1
2017-01-14T02:12:51.566Z,1013.07
2017-01-14T02:13:32.142Z,1013.08
2017-01-14T02:14:12.744Z,1013.11
2017-01-14T02:14:53.324Z,1013.13
2017-01-14T02:15:33.897Z,1013.1
2017-01-14T02:16:14.502Z,1013.11
2017-01-14T02:16:55.087Z,1013.13
2017-01-14T02:17:35.681Z,1013.11
2017-01-14T02:18:16.276Z,1013.07
2017-01-14T02:18:56.861Z,1013.09
2017-01-14T02:19:37.443Z,1013.11
2017-01-14T02:20:18.030Z,1013.08
2017-01-14T02:20:58.610Z,1013.09
2017-01-14T02:21:39.196Z,1013.06
2017-01-14T02:22:19.802Z,1013.09
2017-01-14T02:23:00.405Z,1013.07
2017-01-14T02:23:41.005Z,1013.09
2017-01-14T02:24:21.605Z,1013.03
2017-01-14T02:25:02.214Z,1013.04
2017-01-14T02:25:42.798Z,1013.07
2017-01-14T02:26:23.413Z,1013.01
2017-01-14T02:27:03.997Z,1013.01
2017-01-14T02:27:44.615Z,1012.96
2017-01-14T02:28:25.215Z,1012.97
2017-01-14T02:29:05.824Z,1012.96
2017-01-14T02:29:46.405Z,1012.94
2017-01-14T02:30:27.005Z,1012.93
2017-01-14T02:31:07.628Z,1012.95
2017-01-14T02:31:48.222Z,1012.9
2017-01-14T02:32:28.817Z,1012.96
2017-01-14T02:33:09.432Z,1012.95
2017-01-14T02:33:50.029Z,1012.93
2017-01-14T02:34:30.603Z,1012.91
2017-01-14T02:35:11.194Z,1012.91
2017-01-14T02:35:51.799Z,1012.92
2017-01-14T02:36:32.383Z,1012.9
2017-01-14T02:37:12.971Z,1012.91
2017-01-14T02:37:53.557Z,1012.88
2017-01-14T02:38:34.142Z,1012.91
2017-01-14T02:39:14.744Z,1012.87
2017-01-14T02:39:55.344Z,1012.88
2017-01-14T02:40:35.925Z,1012.85
2017-01-14T02:41:16.503Z,1012.85
2017-01-14T02:41:57.108Z,1012.89
2017-01-14T02:42:37.693Z,1012.91
2017-01-14T02:43:18.278Z,1012.91
2017-01-14T02:43:58.864Z,1012.91
2017-01-14T02:44:39.443Z,1012.85
2017-01-14T02:45:20.016Z,1012.84
2017-01-14T02:46:00.605Z,1012.89
2017-01-14T02:46:41.197Z,1012.84
2017-01-14T02:47:21.798Z,1012.83
2017-01-14T02:48:02.371Z,1012.81
2017-01-14T02:48:42.957Z,1012.76
2017-01-14T02:49:23.542Z,1012.83
2017-01-14T02:50:04.166Z,1012.77
2017-01-14T02:50:45.313Z,1012.77
2017-01-14T02:51:26.288Z,1012.81
2017-01-14T02:52:06.889Z,1012.76
2017-01-14T02:52:47.905Z,1012.77
2017-01-14T02:53:28.813Z,1012.8
2017-01-14T02:54:09.392Z,1012.79
2017-01-14T02:54:49.984Z,1012.77
2017-01-14T02:55:30.563Z,1012.78
2017-01-14T02:56:11.150Z,1012.8
2017-01-14T02:56:51.730Z,1012.77
2017-01-14T02:57:32.321Z,1012.79
2017-01-14T02:58:12.901Z,1012.78
2017-01-14T02:58:53.489Z,1012.74
2017-01-14T02:59:34.084Z,1012.79
2017-01-14T03:00:14.713Z,1012.79
2017-01-14T03:00:55.304Z,1012.79
2017-01-14T03:01:35.889Z,1012.86
2017-01-14T03:02:16.480Z,1012.84
2017-01-14T03:02:57.096Z,1012.88
2017-01-14T03:03:37.682Z,1012.86
2017-01-14T03:04:18.271Z,1012.87
2017-01-14T03:04:58.850Z,1012.82
2017-01-14T03:05:39.448Z,1012.83
2017-01-14T03:06:20.026Z,1012.87
2017-01-14T03:07:00.607Z,1012.85
2017-01-14T03:07:41.187Z,1012.87
2017-01-14T03:08:21.770Z,1012.88
2017-01-14T03:09:02.382Z,1012.83
2017-01-14T03:09:42.968Z,1012.86
2017-01-14T03:10:23.551Z,1012.89
2017-01-14T03:11:04.132Z,1012.88
2017-01-14T03:11:44.730Z,1012.9
2017-01-14T03:12:25.318Z,1012.88
2017-01-14T03:13:05.924Z,1012.91
2017-01-14T03:13:46.524Z,1012.94
2017-01-14T03:14:27.121Z,1012.97
2017-01-14T03:15:07.711Z,1013.03
2017-01-14T03:15:48.300Z,1013
2017-01-14T03:16:28.902Z,1013.01
2017-01-14T03:17:09.483Z,1012.94
2017-01-14T03:17:50.085Z,1012.95
2017-01-14T03:18:30.674Z,1012.95
2017-01-14T03:19:11.275Z,1013
2017-01-14T03:19:51.856Z,1012.97
2017-01-14T03:20:32.437Z,1012.98
2017-01-14T03:21:13.015Z,1012.99
2017-01-14T03:21:53.598Z,1012.97
2017-01-14T03:22:34.187Z,1012.92
2017-01-14T03:23:14.768Z,1012.92
2017-01-14T03:23:55.359Z,1012.88
2017-01-14T03:24:35.938Z,1012.85
2017-01-14T03:25:16.535Z,1012.87
2017-01-14T03:25:57.112Z,1012.88
2017-01-14T03:26:37.694Z,1012.87
2017-01-14T03:27:18.323Z,1012.86
2017-01-14T03:27:58.910Z,1012.89
2017-01-14T03:28:39.507Z,1012.9
2017-01-14T03:29:20.090Z,1012.85
2017-01-14T03:30:00.688Z,1012.9
2017-01-14T03:30:41.269Z,1012.87
2017-01-14T03:31:21.867Z,1012.9
2017-01-14T03:32:02.453Z,1012.9
2017-01-14T03:32:43.036Z,1012.87
2017-01-14T03:33:23.629Z,1012.89
2017-01-14T03:34:04.231Z,1012.86
2017-01-14T03:34:44.830Z,1012.88
2017-01-14T03:35:25.440Z,1012.85
2017-01-14T03:36:06.024Z,1012.83
2017-01-14T03:36:46.612Z,1012.84
2017-01-14T03:37:27.184Z,1012.88
2017-01-14T03:38:07.778Z,1012.88
2017-01-14T03:38:48.389Z,1012.92
2017-01-14T03:39:28.969Z,1012.93
2017-01-14T03:40:09.549Z,1012.96
2017-01-14T03:40:50.146Z,1012.93
2017-01-14T03:41:30.750Z,1013
2017-01-14T03:42:11.359Z,1012.96
2017-01-14T03:42:51.948Z,1012.94
2017-01-14T03:43:32.542Z,1012.96
2017-01-14T03:44:13.133Z,1012.93
2017-01-14T03:44:53.723Z,1012.89
2017-01-14T03:45:34.309Z,1012.9
2017-01-14T03:46:14.904Z,1012.87
2017-01-14T03:46:55.505Z,1012.87
2017-01-14T03:47:36.128Z,1012.9
2017-01-14T03:48:16.712Z,1012.87
2017-01-14T03:48:57.315Z,1012.91
2017-01-14T03:49:37.901Z,1012.89
2017-01-14T03:50:18.492Z,1012.88
2017-01-14T03:50:59.082Z,1012.89
2017-01-14T03:51:39.664Z,1012.91
2017-01-14T03:52:20.272Z,1012.89
2017-01-14T03:53:00.875Z,1012.91
2017-01-14T03:53:41.452Z,1012.88
2017-01-14T03:54:22.042Z,1012.84
2017-01-14T03:55:02.624Z,1012.87
2017-01-14T03:55:43.228Z,1012.85
2017-01-14T03:56:23.828Z,1012.8
2017-01-14T03:57:04.431Z,1012.78
2017-01-14T03:57:45.031Z,1012.79
2017-01-14T03:58:25.622Z,1012.71
2017-01-14T03:59:06.210Z,1012.78
2017-01-14T03:59:46.797Z,1012.81
2017-01-14T04:00:27.410Z,1012.76
2017-01-14T04:01:08.024Z,1012.72
2017-01-14T04:01:48.597Z,1012.79
2017-01-14T04:02:29.196Z,1012.73
2017-01-14T04:03:09.803Z,1012.74
2017-01-14T04:03:50.392Z,1012.72
2017-01-14T04:04:30.987Z,1012.71
2017-01-14T04:05:11.572Z,1012.68
2017-01-14T04:05:52.154Z,1012.71
2017-01-14T04:06:32.729Z,1012.71
2017-01-14T04:07:13.308Z,1012.71
2017-01-14T04:07:53.893Z,1012.65
2017-01-14T04:08:34.474Z,1012.68
2017-01-14T04:09:15.054Z,1012.72
2017-01-14T04:09:55.670Z,1012.66
2017-01-14T04:10:36.245Z,1012.62
2017-01-14T04:11:16.832Z,1012.7
2017-01-14T04:11:57.424Z,1012.7
2017-01-14T04:12:38.030Z,1012.66
2017-01-14T04:13:18.645Z,1012.68
2017-01-14T04:13:59.229Z,1012.63
2017-01-14T04:14:39.827Z,1012.61
2017-01-14T04:15:20.405Z,1012.63
2017-01-14T04:16:00.986Z,1012.61
2017-01-14T04:16:41.583Z,1012.65
2017-01-14T04:17:22.169Z,1012.72
2017-01-14T04:18:02.762Z,1012.71
2017-01-14T04:18:43.345Z,1012.73
2017-01-14T04:19:23.935Z,1012.72
2017-01-14T04:20:04.535Z,1012.8
2017-01-14T04:20:45.136Z,1012.79
2017-01-14T04:21:25.722Z,1012.77
2017-01-14T04:22:06.304Z,1012.82
2017-01-14T04:22:46.888Z,1012.85
2017-01-14T04:23:27.482Z,1012.82
2017-01-14T04:24:08.073Z,1012.89
2017-01-14T04:24:48.662Z,1012.9
2017-01-14T04:25:29.250Z,1012.93
2017-01-14T04:26:09.844Z,1012.95
2017-01-14T04:26:50.431Z,1012.95
2017-01-14T04:27:31.016Z,1012.97
2017-01-14T04:28:11.597Z,1012.96
2017-01-14T04:28:52.176Z,1012.92
2017-01-14T04:29:32.767Z,1012.9
2017-01-14T04:30:13.348Z,1012.91
2017-01-14T04:30:53.935Z,1012.89
2017-01-14T04:31:34.523Z,1012.87
2017-01-14T04:32:15.115Z,1012.86
2017-01-14T04:32:55.713Z,1012.86
2017-01-14T04:33:36.296Z,1012.82
2017-01-14T04:34:16.870Z,1012.84
2017-01-14T04:34:57.462Z,1012.85
2017-01-14T04:35:38.064Z,1012.85
2017-01-14T04:36:18.642Z,1012.86
2017-01-14T04:36:59.229Z,1012.84
2017-01-14T04:37:39.814Z,1012.81
2017-01-14T04:38:20.392Z,1012.86
2017-01-14T04:39:00.980Z,1012.84
2017-01-14T04:39:41.562Z,1012.88
2017-01-14T04:40:22.153Z,1012.91
2017-01-14T04:41:02.756Z,1012.92
2017-01-14T04:41:43.372Z,1012.94
2017-01-14T04:42:23.957Z,1012.91
2017-01-14T04:43:04.556Z,1012.89
2017-01-14T04:43:45.143Z,1012.86
2017-01-14T04:44:25.728Z,1012.84
2017-01-14T04:45:06.311Z,1012.88
2017-01-14T04:45:46.915Z,1012.84
2017-01-14T04:46:27.518Z,1012.83
2017-01-14T04:47:08.116Z,1012.81
2017-01-14T04:47:48.713Z,1012.83
2017-01-14T04:48:29.305Z,1012.81
2017-01-14T04:49:09.885Z,1012.81
2017-01-14T04:49:50.483Z,1012.82
2017-01-14T04:50:31.077Z,1012.78
2017-01-14T04:51:11.682Z,1012.75
2017-01-14T04:51:52.269Z,1012.71
2017-01-14T04:52:32.856Z,1012.72
2017-01-14T04:53:13.442Z,1012.8
2017-01-14T04:53:54.021Z,1012.77
2017-01-14T04:54:34.590Z,1012.77
2017-01-14T04:55:15.182Z,1012.75
2017-01-14T04:55:55.764Z,1012.76
2017-01-14T04:56:36.390Z,1012.78
2017-01-14T04:57:16.979Z,1012.79
2017-01-14T04:57:57.562Z,1012.78
2017-01-14T04:58:38.144Z,1012.79
2017-01-14T04:59:18.734Z,1012.75
2017-01-14T04:59:59.327Z,1012.72
2017-01-14T05:00:39.920Z,1012.77
2017-01-14T05:01:20.526Z,1012.74
2017-01-14T05:02:01.113Z,1012.76
2017-01-14T05:02:41.712Z,1012.73
2017-01-14T05:03:22.317Z,1012.77
2017-01-14T05:04:02.898Z,1012.76
2017-01-14T05:04:43.486Z,1012.76
2017-01-14T05:05:24.076Z,1012.73
2017-01-14T05:06:04.666Z,1012.78
2017-01-14T05:06:45.247Z,1012.78
2017-01-14T05:07:25.823Z,1012.81
2017-01-14T05:08:06.409Z,1012.78
2017-01-14T05:08:46.991Z,1012.8
2017-01-14T05:09:27.584Z,1012.8
2017-01-14T05:10:08.188Z,1012.83
2017-01-14T05:10:48.763Z,1012.87
2017-01-14T05:11:29.363Z,1012.83
2017-01-14T05:12:09.968Z,1012.87
2017-01-14T05:12:50.551Z,1012.83
2017-01-14T05:13:31.150Z,1012.79
2017-01-14T05:14:11.720Z,1012.79
2017-01-14T05:14:52.316Z,1012.81
2017-01-14T05:15:32.905Z,1012.84
2017-01-14T05:16:13.502Z,1012.85
2017-01-14T05:16:54.094Z,1012.82
2017-01-14T05:17:34.687Z,1012.82
2017-01-14T05:18:15.319Z,1012.82
2017-01-14T05:18:55.905Z,1012.82
2017-01-14T05:19:36.505Z,1012.8
2017-01-14T05:20:17.083Z,1012.78
2017-01-14T05:20:57.661Z,1012.83
2017-01-14T05:21:38.246Z,1012.78
2017-01-14T05:22:18.826Z,1012.77
2017-01-14T05:22:59.411Z,1012.76
2017-01-14T05:23:40.030Z,1012.75
2017-01-14T05:24:20.621Z,1012.74
2017-01-14T05:25:01.234Z,1012.75
2017-01-14T05:25:41.826Z,1012.78
2017-01-14T05:26:22.422Z,1012.82
2017-01-14T05:27:03.001Z,1012.84
2017-01-14T05:27:43.577Z,1012.81
2017-01-14T05:28:24.163Z,1012.84
2017-01-14T05:29:04.750Z,1012.79
2017-01-14T05:29:45.329Z,1012.77
2017-01-14T05:30:25.915Z,1012.72
2017-01-14T05:31:06.501Z,1012.77
2017-01-14T05:31:47.091Z,1012.8
2017-01-14T05:32:27.695Z,1012.76
2017-01-14T05:33:08.279Z,1012.77
2017-01-14T05:33:48.880Z,1012.81
2017-01-14T05:34:29.466Z,1012.79
2017-01-14T05:35:10.057Z,1012.78
2017-01-14T05:35:50.641Z,1012.76
2017-01-14T05:36:31.231Z,1012.81
2017-01-14T05:37:11.831Z,1012.76
2017-01-14T05:37:52.416Z,1012.77
2017-01-14T05:38:33.004Z,1012.79
2017-01-14T05:39:13.590Z,1012.8
2017-01-14T05:39:54.168Z,1012.77
2017-01-14T05:40:34.765Z,1012.79
2017-01-14T05:41:15.346Z,1012.8
2017-01-14T05:41:55.938Z,1012.8
2017-01-14T05:42:36.518Z,1012.8
2017-01-14T05:43:17.109Z,1012.78
2017-01-14T05:43:57.687Z,1012.78
2017-01-14T05:44:38.270Z,1012.75
2017-01-14T05:45:18.858Z,1012.81
2017-01-14T05:45:59.466Z,1012.75
2017-01-14T05:46:40.063Z,1012.78
2017-01-14T05:47:20.658Z,1012.77
2017-01-14T05:48:01.253Z,1012.79
2017-01-14T05:48:41.840Z,1012.82
2017-01-14T05:49:22.423Z,1012.82
2017-01-14T05:50:03.013Z,1012.9
2017-01-14T05:50:43.592Z,1012.82
2017-01-14T05:51:24.170Z,1012.89
2017-01-14T05:52:04.773Z,1012.92
2017-01-14T05:52:45.355Z,1012.94
2017-01-14T05:53:25.945Z,1012.94
2017-01-14T05:54:06.532Z,1012.92
2017-01-14T05:54:47.111Z,1012.92
2017-01-14T05:55:27.699Z,1012.99
2017-01-14T05:56:08.287Z,1013.01
2017-01-14T05:56:48.864Z,1013.01
2017-01-14T05:57:30.318Z,1012.96
2017-01-14T05:58:10.969Z,1013.03
2017-01-14T05:58:51.551Z,1013.02
2017-01-14T05:59:32.136Z,1013.06
2017-01-14T06:00:12.738Z,1013.08
2017-01-14T06:00:53.324Z,1013.1
2017-01-14T06:01:33.916Z,1013.04
2017-01-14T06:02:14.500Z,1013.01
2017-01-14T06:02:55.077Z,1013
2017-01-14T06:03:35.664Z,1013.03
2017-01-14T06:04:16.266Z,1013.01
2017-01-14T06:04:56.847Z,1013.02
2017-01-14T06:05:37.439Z,1013.03
2017-01-14T06:06:18.016Z,1013.03
2017-01-14T06:06:58.636Z,1013.01
2017-01-14T06:07:39.221Z,1013.07
2017-01-14T06:08:19.815Z,1013.04
2017-01-14T06:09:00.431Z,1013.06
2017-01-14T06:09:41.022Z,1013.06
2017-01-14T06:10:21.612Z,1013.07
2017-01-14T06:11:02.212Z,1013.08
2017-01-14T06:11:42.796Z,1013.07
2017-01-14T06:12:23.386Z,1013.09
2017-01-14T06:13:03.977Z,1013.09
2017-01-14T06:13:44.557Z,1013.07
2017-01-14T06:14:25.138Z,1013.09
2017-01-14T06:15:05.740Z,1013.08
2017-01-14T06:15:46.336Z,1013.07
2017-01-14T06:16:26.914Z,1013.09
2017-01-14T06:17:07.495Z,1013.1
2017-01-14T06:17:48.086Z,1013.1
2017-01-14T06:18:28.666Z,1013.12
2017-01-14T06:19:09.244Z,1013.12
2017-01-14T06:19:49.818Z,1013.15
2017-01-14T06:20:30.395Z,1013.15
2017-01-14T06:21:10.979Z,1013.16
2017-01-14T06:21:51.568Z,1013.16
2017-01-14T06:22:32.157Z,1013.17
2017-01-14T06:23:12.750Z,1013.17
2017-01-14T06:23:53.332Z,1013.2
2017-01-14T06:24:33.921Z,1013.19
2017-01-14T06:25:14.519Z,1013.2
2017-01-14T06:25:55.104Z,1013.15
2017-01-14T06:26:35.693Z,1013.17
2017-01-14T06:27:16.283Z,1013.19
2017-01-14T06:27:56.869Z,1013.2
2017-01-14T06:28:37.469Z,1013.17
2017-01-14T06:29:18.047Z,1013.22
2017-01-14T06:29:58.633Z,1013.21
2017-01-14T06:30:39.217Z,1013.19
2017-01-14T06:31:19.795Z,1013.22
2017-01-14T06:32:00.377Z,1013.22
2017-01-14T06:32:40.954Z,1013.17
2017-01-14T06:33:21.540Z,1013.18
2017-01-14T06:34:02.134Z,1013.15
2017-01-14T06:34:42.743Z,1013.11
2017-01-14T06:35:23.334Z,1013.13
2017-01-14T06:36:03.968Z,1013.1
2017-01-14T06:36:44.557Z,1013.13
2017-01-14T06:37:25.153Z,1013.13
2017-01-14T06:38:05.743Z,1013.16
2017-01-14T06:38:46.337Z,1013.21
2017-01-14T06:39:26.914Z,1013.19
2017-01-14T06:40:07.507Z,1013.21
2017-01-14T06:40:48.112Z,1013.22
2017-01-14T06:41:28.708Z,1013.25
2017-01-14T06:42:09.319Z,1013.25
2017-01-14T06:42:49.914Z,1013.25
2017-01-14T06:43:30.509Z,1013.25
2017-01-14T06:44:11.112Z,1013.22
2017-01-14T06:44:51.721Z,1013.23
2017-01-14T06:45:32.323Z,1013.26
2017-01-14T06:46:12.918Z,1013.25
2017-01-14T06:46:53.507Z,1013.22
2017-01-14T06:47:34.124Z,1013.22
2017-01-14T06:48:14.739Z,1013.24
2017-01-14T06:48:55.338Z,1013.23
2017-01-14T06:49:35.928Z,1013.26
2017-01-14T06:50:16.519Z,1013.25
2017-01-14T06:50:57.095Z,1013.3
2017-01-14T06:51:37.695Z,1013.29
2017-01-14T06:52:18.286Z,1013.3
2017-01-14T06:52:58.904Z,1013.33
2017-01-14T06:53:39.494Z,1013.31
2017-01-14T06:54:20.096Z,1013.33
2017-01-14T06:55:00.672Z,1013.34
2017-01-14T06:55:41.248Z,1013.35
2017-01-14T06:56:21.829Z,1013.34
2017-01-14T06:57:02.424Z,1013.3
2017-01-14T06:57:43.009Z,1013.31
2017-01-14T06:58:23.592Z,1013.3
2017-01-14T06:59:04.179Z,1013.27
2017-01-14T06:59:44.778Z,1013.3
2017-01-14T07:00:25.372Z,1013.3
2017-01-14T07:01:05.962Z,1013.28
2017-01-14T07:01:46.561Z,1013.26
2017-01-14T07:02:27.165Z,1013.26
2017-01-14T07:03:07.748Z,1013.27
2017-01-14T07:03:48.323Z,1013.24
2017-01-14T07:04:28.915Z,1013.24
2017-01-14T07:05:09.524Z,1013.27
2017-01-14T07:05:50.120Z,1013.26
2017-01-14T07:06:30.705Z,1013.31
2017-01-14T07:07:11.299Z,1013.24
2017-01-14T07:07:51.881Z,1013.31
2017-01-14T07:08:32.487Z,1013.24
2017-01-14T07:09:13.083Z,1013.23
2017-01-14T07:09:53.687Z,1013.22
2017-01-14T07:10:34.283Z,1013.2
2017-01-14T07:11:14.869Z,1013.19
2017-01-14T07:11:55.442Z,1013.23
2017-01-14T07:12:36.032Z,1013.21
2017-01-14T07:13:16.624Z,1013.26
2017-01-14T07:13:57.197Z,1013.23
2017-01-14T07:14:37.786Z,1013.22
2017-01-14T07:15:18.380Z,1013.23
2017-01-14T07:15:58.968Z,1013.26
2017-01-14T07:16:39.541Z,1013.24
2017-01-14T07:17:20.127Z,1013.23
2017-01-14T07:18:00.708Z,1013.25
2017-01-14T07:18:41.295Z,1013.26
2017-01-14T07:19:21.864Z,1013.27
2017-01-14T07:20:02.451Z,1013.29
2017-01-14T07:20:43.056Z,1013.31
2017-01-14T07:21:23.654Z,1013.33
2017-01-14T07:22:04.254Z,1013.36
2017-01-14T07:22:44.842Z,1013.33
2017-01-14T07:23:25.423Z,1013.36
2017-01-14T07:24:06.004Z,1013.39
2017-01-14T07:24:46.585Z,1013.43
2017-01-14T07:25:27.175Z,1013.42
2017-01-14T07:26:07.763Z,1013.44
2017-01-14T07:26:48.338Z,1013.41
2017-01-14T07:27:28.928Z,1013.39
2017-01-14T07:28:09.508Z,1013.38
2017-01-14T07:28:50.085Z,1013.37
2017-01-14T07:29:30.676Z,1013.35
2017-01-14T07:30:11.267Z,1013.37
2017-01-14T07:30:51.868Z,1013.41
2017-01-14T07:31:32.456Z,1013.41
2017-01-14T07:32:13.029Z,1013.43
2017-01-14T07:32:53.608Z,1013.48
2017-01-14T07:33:34.188Z,1013.47
2017-01-14T07:34:14.785Z,1013.49
2017-01-14T07:34:55.381Z,1013.56
2017-01-14T07:35:35.957Z,1013.56
2017-01-14T07:36:16.555Z,1013.57
2017-01-14T07:36:57.141Z,1013.58
2017-01-14T07:37:37.728Z,1013.58
2017-01-14T07:38:18.308Z,1013.62
2017-01-14T07:38:58.904Z,1013.63
2017-01-14T07:39:39.504Z,1013.67
2017-01-14T07:40:20.090Z,1013.67
2017-01-14T07:41:00.675Z,1013.76
2017-01-14T07:41:41.260Z,1013.74
2017-01-14T07:42:21.836Z,1013.81
2017-01-14T07:43:02.419Z,1013.83
2017-01-14T07:43:43.032Z,1013.84
2017-01-14T07:44:23.613Z,1013.83
2017-01-14T07:45:04.204Z,1013.83
2017-01-14T07:45:44.790Z,1013.8
2017-01-14T07:46:25.367Z,1013.84
2017-01-14T07:47:05.969Z,1013.83
2017-01-14T07:47:46.560Z,1013.84
2017-01-14T07:48:27.144Z,1013.8
2017-01-14T07:49:07.731Z,1013.81
2017-01-14T07:49:48.324Z,1013.81
2017-01-14T07:50:28.933Z,1013.84
2017-01-14T07:51:09.523Z,1013.81
2017-01-14T07:51:50.138Z,1013.8
2017-01-14T07:52:30.740Z,1013.8
2017-01-14T07:53:11.319Z,1013.82
2017-01-14T07:53:51.908Z,1013.83
2017-01-14T07:54:32.492Z,1013.78
2017-01-14T07:55:13.098Z,1013.77
2017-01-14T07:55:53.702Z,1013.78
2017-01-14T07:56:34.279Z,1013.77
2017-01-14T07:57:14.853Z,1013.84
2017-01-14T07:57:55.443Z,1013.87
2017-01-14T07:58:36.020Z,1013.89
2017-01-14T07:59:16.603Z,1013.93
2017-01-14T07:59:57.194Z,1013.9
2017-01-14T08:00:37.776Z,1013.92
2017-01-14T08:01:18.357Z,1013.93
2017-01-14T08:01:58.941Z,1013.93
2017-01-14T08:02:39.520Z,1013.94
2017-01-14T08:03:20.117Z,1013.98
2017-01-14T08:04:00.704Z,1013.96
2017-01-14T08:04:41.299Z,1013.98
2017-01-14T08:05:21.880Z,1014
2017-01-14T08:06:02.486Z,1014.03
2017-01-14T08:06:43.096Z,1014.07
2017-01-14T08:07:23.688Z,1014.06
2017-01-14T08:08:04.281Z,1014.04
2017-01-14T08:08:44.862Z,1014.09
2017-01-14T08:09:25.447Z,1014.12
2017-01-14T08:10:06.039Z,1014.21
2017-01-14T08:10:46.626Z,1014.17
2017-01-14T08:11:27.209Z,1014.18
2017-01-14T08:12:07.794Z,1014.17
2017-01-14T08:12:48.398Z,1014.14